Terminal Aerodrome Forecast
Issued by NWS Goodland, KS

Home | Current Version | Previous Version | Text Only | Print | Product List | Glossary On
Versions: 1 2 3 4 5 6 7 8 9 10 11 12 13 14 15
000
FTUS43 KGLD 011147
TAFGLD
TAF
KGLD 011147Z 0112/0212 27008KT P6SM FEW120 SCT200
     FM011800 17009KT P6SM FEW080 SCT250
     FM020800 20006KT P6SM FEW200=

USA.gov is the U.S. government's official web portal to all federal, state and local government web resources and services.